sensor_id;sensor_type;location;lat;lon;timestamp;temperature;humidity
18876;DHT22;9570;50.854;13.778;2022-09-09T00:01:10;13.40;99.90
18876;DHT22;9570;50.854;13.778;2022-09-09T00:03:43;13.30;99.90
18876;DHT22;9570;50.854;13.778;2022-09-09T00:06:21;13.30;99.90
18876;DHT22;9570;50.854;13.778;2022-09-09T00:09:34;13.30;99.90
18876;DHT22;9570;50.854;13.778;2022-09-09T00:11:43;13.30;99.90
18876;DHT22;9570;50.854;13.778;2022-09-09T00:14:29;13.20;99.90
18876;DHT22;9570;50.854;13.778;2022-09-09T00:17:03;13.20;99.90
18876;DHT22;9570;50.854;13.778;2022-09-09T00:19:46;13.30;99.90
18876;DHT22;9570;50.854;13.778;2022-09-09T00:22:18;13.20;99.90
18876;DHT22;9570;50.854;13.778;2022-09-09T00:24:46;13.20;99.90
18876;DHT22;9570;50.854;13.778;2022-09-09T00:27:25;13.20;99.90
18876;DHT22;9570;50.854;13.778;2022-09-09T00:30:00;13.20;99.90
18876;DHT22;9570;50.854;13.778;2022-09-09T00:32:30;13.20;99.90
18876;DHT22;9570;50.854;13.778;2022-09-09T00:35:23;13.20;99.90
18876;DHT22;9570;50.854;13.778;2022-09-09T00:37:53;13.20;99.90
18876;DHT22;9570;50.854;13.778;2022-09-09T00:40:24;13.20;99.90
18876;DHT22;9570;50.854;13.778;2022-09-09T00:46:00;13.10;99.90
18876;DHT22;9570;50.854;13.778;2022-09-09T00:51:49;13.10;99.90
18876;DHT22;9570;50.854;13.778;2022-09-09T00:57:25;13.10;99.90
18876;DHT22;9570;50.854;13.778;2022-09-09T01:05:16;13.00;99.90
18876;DHT22;9570;50.854;13.778;2022-09-09T01:07:47;13.00;99.90
18876;DHT22;9570;50.854;13.778;2022-09-09T01:10:33;13.00;99.90
18876;DHT22;9570;50.854;13.778;2022-09-09T01:13:05;13.00;99.90
18876;DHT22;9570;50.854;13.778;2022-09-09T01:15:34;13.00;99.90
18876;DHT22;9570;50.854;13.778;2022-09-09T01:18:06;13.00;99.90
18876;DHT22;9570;50.854;13.778;2022-09-09T01:26:05;12.90;99.90
18876;DHT22;9570;50.854;13.778;2022-09-09T01:28:35;12.80;99.90
18876;DHT22;9570;50.854;13.778;2022-09-09T01:31:04;12.90;99.90
18876;DHT22;9570;50.854;13.778;2022-09-09T01:33:30;12.80;99.90
18876;DHT22;9570;50.854;13.778;2022-09-09T01:36:04;12.80;99.90
18876;DHT22;9570;50.854;13.778;2022-09-09T01:38:33;12.80;99.90
18876;DHT22;9570;50.854;13.778;2022-09-09T01:41:00;12.70;99.90
18876;DHT22;9570;50.854;13.778;2022-09-09T01:43:27;12.70;99.90
18876;DHT22;9570;50.854;13.778;2022-09-09T01:45:54;12.70;99.90
18876;DHT22;9570;50.854;13.778;2022-09-09T01:48:22;12.70;99.90
18876;DHT22;9570;50.854;13.778;2022-09-09T01:50:48;12.70;99.90
18876;DHT22;9570;50.854;13.778;2022-09-09T01:53:15;12.70;99.90
18876;DHT22;9570;50.854;13.778;2022-09-09T01:55:49;12.70;99.90
18876;DHT22;9570;50.854;13.778;2022-09-09T02:00:54;12.60;99.90
18876;DHT22;9570;50.854;13.778;2022-09-09T02:03:27;12.60;99.90
18876;DHT22;9570;50.854;13.778;2022-09-09T02:06:30;12.60;99.90
18876;DHT22;9570;50.854;13.778;2022-09-09T02:08:57;12.60;99.90
18876;DHT22;9570;50.854;13.778;2022-09-09T02:11:27;12.60;99.90
18876;DHT22;9570;50.854;13.778;2022-09-09T02:13:55;12.60;99.90
18876;DHT22;9570;50.854;13.778;2022-09-09T02:19:14;12.50;99.90
18876;DHT22;9570;50.854;13.778;2022-09-09T02:21:50;12.40;99.90
18876;DHT22;9570;50.854;13.778;2022-09-09T02:24:17;12.40;99.90
18876;DHT22;9570;50.854;13.778;2022-09-09T02:26:44;12.40;99.90
18876;DHT22;9570;50.854;13.778;2022-09-09T02:29:24;12.40;99.90
18876;DHT22;9570;50.854;13.778;2022-09-09T02:31:51;12.40;99.90
18876;DHT22;9570;50.854;13.778;2022-09-09T02:34:22;12.40;99.90
18876;DHT22;9570;50.854;13.778;2022-09-09T02:36:50;12.30;99.90
18876;DHT22;9570;50.854;13.778;2022-09-09T02:39:18;12.30;99.90
18876;DHT22;9570;50.854;13.778;2022-09-09T02:41:44;12.30;99.90
18876;DHT22;9570;50.854;13.778;2022-09-09T02:44:14;12.30;99.90
18876;DHT22;9570;50.854;13.778;2022-09-09T02:52:14;12.30;99.90
18876;DHT22;9570;50.854;13.778;2022-09-09T02:54:43;12.30;99.90
18876;DHT22;9570;50.854;13.778;2022-09-09T02:57:27;12.20;99.90
18876;DHT22;9570;50.854;13.778;2022-09-09T02:59:53;12.20;99.90
18876;DHT22;9570;50.854;13.778;2022-09-09T03:02:20;12.20;99.90
18876;DHT22;9570;50.854;13.778;2022-09-09T03:04:46;12.20;99.90
18876;DHT22;9570;50.854;13.778;2022-09-09T03:07:16;12.10;99.90
18876;DHT22;9570;50.854;13.778;2022-09-09T03:09:42;12.10;99.90
18876;DHT22;9570;50.854;13.778;2022-09-09T03:12:08;12.10;99.90
18876;DHT22;9570;50.854;13.778;2022-09-09T03:14:35;12.00;99.90
18876;DHT22;9570;50.854;13.778;2022-09-09T03:17:01;12.00;99.90
18876;DHT22;9570;50.854;13.778;2022-09-09T03:19:27;12.10;99.90
18876;DHT22;9570;50.854;13.778;2022-09-09T03:21:53;12.00;99.90
18876;DHT22;9570;50.854;13.778;2022-09-09T03:24:19;12.00;99.90
18876;DHT22;9570;50.854;13.778;2022-09-09T03:26:45;12.10;99.90
18876;DHT22;9570;50.854;13.778;2022-09-09T03:29:11;12.00;99.90
18876;DHT22;9570;50.854;13.778;2022-09-09T03:31:38;11.90;99.90
18876;DHT22;9570;50.854;13.778;2022-09-09T03:34:04;12.00;99.90
18876;DHT22;9570;50.854;13.778;2022-09-09T03:36:30;12.00;99.90
18876;DHT22;9570;50.854;13.778;2022-09-09T03:38:55;11.90;99.90
18876;DHT22;9570;50.854;13.778;2022-09-09T03:41:22;11.90;99.90
18876;DHT22;9570;50.854;13.778;2022-09-09T03:43:50;11.90;99.90
18876;DHT22;9570;50.854;13.778;2022-09-09T03:46:16;11.90;99.90
18876;DHT22;9570;50.854;13.778;2022-09-09T03:48:42;11.90;99.90
18876;DHT22;9570;50.854;13.778;2022-09-09T03:51:07;11.90;99.90
18876;DHT22;9570;50.854;13.778;2022-09-09T03:53:33;11.90;99.90
18876;DHT22;9570;50.854;13.778;2022-09-09T03:55:59;11.90;99.90
18876;DHT22;9570;50.854;13.778;2022-09-09T03:58:26;11.90;99.90
18876;DHT22;9570;50.854;13.778;2022-09-09T04:00:57;11.90;99.90
18876;DHT22;9570;50.854;13.778;2022-09-09T04:03:23;11.90;99.90
18876;DHT22;9570;50.854;13.778;2022-09-09T04:05:52;11.90;99.90
18876;DHT22;9570;50.854;13.778;2022-09-09T04:08:19;11.90;99.90
18876;DHT22;9570;50.854;13.778;2022-09-09T04:10:47;11.90;99.90
18876;DHT22;9570;50.854;13.778;2022-09-09T04:13:13;11.90;99.90
18876;DHT22;9570;50.854;13.778;2022-09-09T04:15:40;11.90;99.90
18876;DHT22;9570;50.854;13.778;2022-09-09T04:18:05;11.90;99.90
18876;DHT22;9570;50.854;13.778;2022-09-09T04:20:31;11.90;99.90
18876;DHT22;9570;50.854;13.778;2022-09-09T04:22:57;11.90;99.90
18876;DHT22;9570;50.854;13.778;2022-09-09T04:25:23;11.90;99.90
18876;DHT22;9570;50.854;13.778;2022-09-09T04:27:54;11.90;99.90
18876;DHT22;9570;50.854;13.778;2022-09-09T04:30:20;11.90;99.90
18876;DHT22;9570;50.854;13.778;2022-09-09T04:32:46;11.90;99.90
18876;DHT22;9570;50.854;13.778;2022-09-09T04:35:11;11.90;99.90
18876;DHT22;9570;50.854;13.778;2022-09-09T04:37:37;12.00;99.90
18876;DHT22;9570;50.854;13.778;2022-09-09T04:40:02;12.00;99.90
18876;DHT22;9570;50.854;13.778;2022-09-09T04:42:28;12.00;99.90
18876;DHT22;9570;50.854;13.778;2022-09-09T04:44:54;12.00;99.90
18876;DHT22;9570;50.854;13.778;2022-09-09T04:47:19;12.00;99.90
18876;DHT22;9570;50.854;13.778;2022-09-09T04:49:45;12.00;99.90
18876;DHT22;9570;50.854;13.778;2022-09-09T04:52:10;12.00;99.90
18876;DHT22;9570;50.854;13.778;2022-09-09T04:54:36;12.00;99.90
18876;DHT22;9570;50.854;13.778;2022-09-09T04:57:01;12.10;99.90
18876;DHT22;9570;50.854;13.778;2022-09-09T04:59:27;12.10;99.90
18876;DHT22;9570;50.854;13.778;2022-09-09T05:01:52;12.10;99.90
18876;DHT22;9570;50.854;13.778;2022-09-09T05:04:20;12.20;99.90
18876;DHT22;9570;50.854;13.778;2022-09-09T05:06:46;12.20;99.90
18876;DHT22;9570;50.854;13.778;2022-09-09T05:09:11;12.20;99.90
18876;DHT22;9570;50.854;13.778;2022-09-09T05:11:37;12.20;99.90
18876;DHT22;9570;50.854;13.778;2022-09-09T05:14:03;12.30;99.90
18876;DHT22;9570;50.854;13.778;2022-09-09T05:16:30;12.30;99.90
18876;DHT22;9570;50.854;13.778;2022-09-09T05:18:55;12.40;99.90
18876;DHT22;9570;50.854;13.778;2022-09-09T05:21:22;12.40;99.90
18876;DHT22;9570;50.854;13.778;2022-09-09T05:23:49;12.40;99.90
18876;DHT22;9570;50.854;13.778;2022-09-09T05:26:17;12.50;99.90
18876;DHT22;9570;50.854;13.778;2022-09-09T05:28:44;12.60;99.90
18876;DHT22;9570;50.854;13.778;2022-09-09T05:31:11;12.70;99.90
18876;DHT22;9570;50.854;13.778;2022-09-09T05:33:38;12.70;99.90
18876;DHT22;9570;50.854;13.778;2022-09-09T05:36:07;12.70;99.90
18876;DHT22;9570;50.854;13.778;2022-09-09T05:38:34;12.80;99.90
18876;DHT22;9570;50.854;13.778;2022-09-09T05:41:00;12.80;99.90
18876;DHT22;9570;50.854;13.778;2022-09-09T05:43:27;12.90;99.90
18876;DHT22;9570;50.854;13.778;2022-09-09T05:46:19;13.00;99.90
18876;DHT22;9570;50.854;13.778;2022-09-09T05:48:47;13.00;99.90
18876;DHT22;9570;50.854;13.778;2022-09-09T05:51:18;13.00;99.90
18876;DHT22;9570;50.854;13.778;2022-09-09T05:53:46;13.10;99.90
18876;DHT22;9570;50.854;13.778;2022-09-09T05:56:14;13.20;99.90
18876;DHT22;9570;50.854;13.778;2022-09-09T05:58:41;13.20;99.90
18876;DHT22;9570;50.854;13.778;2022-09-09T06:01:12;13.30;99.90
18876;DHT22;9570;50.854;13.778;2022-09-09T06:03:40;13.30;99.90
18876;DHT22;9570;50.854;13.778;2022-09-09T06:06:08;13.40;99.90
18876;DHT22;9570;50.854;13.778;2022-09-09T06:08:35;13.40;99.90
18876;DHT22;9570;50.854;13.778;2022-09-09T06:11:06;13.50;99.90
18876;DHT22;9570;50.854;13.778;2022-09-09T06:13:32;13.60;99.90
18876;DHT22;9570;50.854;13.778;2022-09-09T06:15:58;13.80;99.90
18876;DHT22;9570;50.854;13.778;2022-09-09T06:18:24;13.90;99.90
18876;DHT22;9570;50.854;13.778;2022-09-09T06:20:55;14.00;99.90
18876;DHT22;9570;50.854;13.778;2022-09-09T06:23:21;14.00;99.90
18876;DHT22;9570;50.854;13.778;2022-09-09T06:25:46;14.10;99.90
18876;DHT22;9570;50.854;13.778;2022-09-09T06:28:12;14.30;99.90
18876;DHT22;9570;50.854;13.778;2022-09-09T06:30:38;14.40;99.90
18876;DHT22;9570;50.854;13.778;2022-09-09T06:33:05;14.50;99.90
18876;DHT22;9570;50.854;13.778;2022-09-09T06:35:30;14.50;99.90
18876;DHT22;9570;50.854;13.778;2022-09-09T06:37:56;14.70;99.90
18876;DHT22;9570;50.854;13.778;2022-09-09T06:40:24;14.80;99.90
18876;DHT22;9570;50.854;13.778;2022-09-09T06:42:49;15.20;99.90
18876;DHT22;9570;50.854;13.778;2022-09-09T06:45:15;15.50;99.90
18876;DHT22;9570;50.854;13.778;2022-09-09T06:47:40;15.90;99.90
18876;DHT22;9570;50.854;13.778;2022-09-09T06:50:07;16.20;99.90
18876;DHT22;9570;50.854;13.778;2022-09-09T06:52:33;16.40;99.90
18876;DHT22;9570;50.854;13.778;2022-09-09T06:54:59;16.60;99.90
18876;DHT22;9570;50.854;13.778;2022-09-09T06:57:24;16.80;99.90
18876;DHT22;9570;50.854;13.778;2022-09-09T06:59:49;17.00;99.90
18876;DHT22;9570;50.854;13.778;2022-09-09T07:02:15;17.10;99.90
18876;DHT22;9570;50.854;13.778;2022-09-09T07:04:41;17.20;99.90
18876;DHT22;9570;50.854;13.778;2022-09-09T07:07:06;17.40;99.90
18876;DHT22;9570;50.854;13.778;2022-09-09T07:09:33;17.40;99.90
18876;DHT22;9570;50.854;13.778;2022-09-09T07:11:58;17.40;99.90
18876;DHT22;9570;50.854;13.778;2022-09-09T07:14:24;17.40;99.90
18876;DHT22;9570;50.854;13.778;2022-09-09T07:16:50;17.50;99.90
18876;DHT22;9570;50.854;13.778;2022-09-09T07:19:16;17.80;99.90
18876;DHT22;9570;50.854;13.778;2022-09-09T07:21:42;18.20;99.90
18876;DHT22;9570;50.854;13.778;2022-09-09T07:24:08;18.40;99.90
18876;DHT22;9570;50.854;13.778;2022-09-09T07:26:36;18.50;99.90
18876;DHT22;9570;50.854;13.778;2022-09-09T07:29:02;18.60;99.90
18876;DHT22;9570;50.854;13.778;2022-09-09T07:31:30;18.80;99.90
18876;DHT22;9570;50.854;13.778;2022-09-09T07:33:56;19.30;99.90
18876;DHT22;9570;50.854;13.778;2022-09-09T07:36:28;19.50;99.90
18876;DHT22;9570;50.854;13.778;2022-09-09T07:38:56;19.60;99.90
18876;DHT22;9570;50.854;13.778;2022-09-09T07:41:36;19.70;99.90
18876;DHT22;9570;50.854;13.778;2022-09-09T07:44:14;19.70;99.90
18876;DHT22;9570;50.854;13.778;2022-09-09T07:46:41;19.60;99.90
18876;DHT22;9570;50.854;13.778;2022-09-09T07:49:07;19.80;99.90
18876;DHT22;9570;50.854;13.778;2022-09-09T07:51:35;19.80;99.90
18876;DHT22;9570;50.854;13.778;2022-09-09T07:54:05;19.90;99.90
18876;DHT22;9570;50.854;13.778;2022-09-09T07:56:31;20.00;99.90
18876;DHT22;9570;50.854;13.778;2022-09-09T07:58:58;20.20;99.90
18876;DHT22;9570;50.854;13.778;2022-09-09T08:01:31;20.40;99.90
18876;DHT22;9570;50.854;13.778;2022-09-09T08:04:00;20.80;99.90
18876;DHT22;9570;50.854;13.778;2022-09-09T08:06:27;21.10;99.90
18876;DHT22;9570;50.854;13.778;2022-09-09T08:08:54;21.30;99.90
18876;DHT22;9570;50.854;13.778;2022-09-09T08:11:22;21.60;99.90
18876;DHT22;9570;50.854;13.778;2022-09-09T08:13:49;22.00;99.90
18876;DHT22;9570;50.854;13.778;2022-09-09T08:16:26;22.40;99.90
18876;DHT22;9570;50.854;13.778;2022-09-09T08:18:53;22.60;99.90
18876;DHT22;9570;50.854;13.778;2022-09-09T08:21:22;22.50;99.90
18876;DHT22;9570;50.854;13.778;2022-09-09T08:23:50;22.30;99.90
18876;DHT22;9570;50.854;13.778;2022-09-09T08:26:19;22.10;99.90
18876;DHT22;9570;50.854;13.778;2022-09-09T08:28:49;22.00;99.90
18876;DHT22;9570;50.854;13.778;2022-09-09T08:31:24;21.80;99.90
18876;DHT22;9570;50.854;13.778;2022-09-09T08:33:50;21.60;99.90
18876;DHT22;9570;50.854;13.778;2022-09-09T08:36:21;21.10;99.90
18876;DHT22;9570;50.854;13.778;2022-09-09T08:38:51;20.80;99.90
18876;DHT22;9570;50.854;13.778;2022-09-09T08:44:14;20.10;99.90
18876;DHT22;9570;50.854;13.778;2022-09-09T08:52:37;19.80;99.90
18876;DHT22;9570;50.854;13.778;2022-09-09T08:57:38;19.80;99.90
18876;DHT22;9570;50.854;13.778;2022-09-09T09:00:05;19.70;99.90
18876;DHT22;9570;50.854;13.778;2022-09-09T09:02:56;19.70;99.90
18876;DHT22;9570;50.854;13.778;2022-09-09T09:05:48;19.60;99.90
18876;DHT22;9570;50.854;13.778;2022-09-09T09:08:43;19.60;99.90
18876;DHT22;9570;50.854;13.778;2022-09-09T09:11:10;19.30;99.90
18876;DHT22;9570;50.854;13.778;2022-09-09T09:13:48;19.20;99.90
18876;DHT22;9570;50.854;13.778;2022-09-09T09:18:51;19.00;99.90
18876;DHT22;9570;50.854;13.778;2022-09-09T09:23:56;18.90;99.90
18876;DHT22;9570;50.854;13.778;2022-09-09T09:26:25;18.90;99.90
18876;DHT22;9570;50.854;13.778;2022-09-09T09:28:55;18.80;99.90
18876;DHT22;9570;50.854;13.778;2022-09-09T09:31:22;18.90;99.90
18876;DHT22;9570;50.854;13.778;2022-09-09T09:33:53;18.70;99.90
18876;DHT22;9570;50.854;13.778;2022-09-09T09:36:20;18.20;99.90
18876;DHT22;9570;50.854;13.778;2022-09-09T09:39:25;18.10;99.90
18876;DHT22;9570;50.854;13.778;2022-09-09T09:41:51;18.00;99.90
18876;DHT22;9570;50.854;13.778;2022-09-09T09:44:31;18.00;99.90
18876;DHT22;9570;50.854;13.778;2022-09-09T09:47:08;18.00;99.90
18876;DHT22;9570;50.854;13.778;2022-09-09T09:49:36;18.20;99.90
18876;DHT22;9570;50.854;13.778;2022-09-09T09:52:03;18.30;99.90
18876;DHT22;9570;50.854;13.778;2022-09-09T09:54:39;18.60;99.90
18876;DHT22;9570;50.854;13.778;2022-09-09T09:57:12;18.80;99.90
18876;DHT22;9570;50.854;13.778;2022-09-09T09:59:38;18.80;99.90
18876;DHT22;9570;50.854;13.778;2022-09-09T10:02:20;19.10;99.90
18876;DHT22;9570;50.854;13.778;2022-09-09T10:04:48;18.90;99.90
18876;DHT22;9570;50.854;13.778;2022-09-09T10:07:19;19.00;99.90
18876;DHT22;9570;50.854;13.778;2022-09-09T10:09:46;19.10;99.90
18876;DHT22;9570;50.854;13.778;2022-09-09T10:12:35;19.40;99.90
18876;DHT22;9570;50.854;13.778;2022-09-09T10:15:44;19.70;99.90
18876;DHT22;9570;50.854;13.778;2022-09-09T10:18:53;19.70;99.90
18876;DHT22;9570;50.854;13.778;2022-09-09T10:21:48;19.60;99.90
18876;DHT22;9570;50.854;13.778;2022-09-09T10:24:41;19.60;99.90
18876;DHT22;9570;50.854;13.778;2022-09-09T10:30:18;20.00;99.90
18876;DHT22;9570;50.854;13.778;2022-09-09T10:36:23;20.80;99.90
18876;DHT22;9570;50.854;13.778;2022-09-09T10:38:57;21.10;99.90
18876;DHT22;9570;50.854;13.778;2022-09-09T10:47:52;21.70;99.90
18876;DHT22;9570;50.854;13.778;2022-09-09T10:55:20;22.00;99.90
18876;DHT22;9570;50.854;13.778;2022-09-09T10:57:48;22.00;99.90
18876;DHT22;9570;50.854;13.778;2022-09-09T11:00:22;22.00;99.90
18876;DHT22;9570;50.854;13.778;2022-09-09T11:02:52;22.00;99.90
18876;DHT22;9570;50.854;13.778;2022-09-09T11:05:28;22.20;99.90
18876;DHT22;9570;50.854;13.778;2022-09-09T11:08:03;22.40;99.90
18876;DHT22;9570;50.854;13.778;2022-09-09T11:10:40;22.50;99.90
18876;DHT22;9570;50.854;13.778;2022-09-09T11:13:18;22.20;99.90
18876;DHT22;9570;50.854;13.778;2022-09-09T11:15:50;21.90;99.90
18876;DHT22;9570;50.854;13.778;2022-09-09T11:18:20;21.50;99.90
18876;DHT22;9570;50.854;13.778;2022-09-09T11:20:50;21.10;99.90
18876;DHT22;9570;50.854;13.778;2022-09-09T11:23:23;20.70;99.90
18876;DHT22;9570;50.854;13.778;2022-09-09T11:26:02;20.40;99.90
18876;DHT22;9570;50.854;13.778;2022-09-09T11:37:23;20.40;99.90
18876;DHT22;9570;50.854;13.778;2022-09-09T11:40:14;20.60;99.90
18876;DHT22;9570;50.854;13.778;2022-09-09T11:42:42;20.70;99.90
18876;DHT22;9570;50.854;13.778;2022-09-09T11:45:25;20.70;99.90
18876;DHT22;9570;50.854;13.778;2022-09-09T11:47:58;20.60;99.90
18876;DHT22;9570;50.854;13.778;2022-09-09T11:52:49;20.70;99.90
18876;DHT22;9570;50.854;13.778;2022-09-09T11:55:25;20.60;99.90
18876;DHT22;9570;50.854;13.778;2022-09-09T11:57:59;20.30;99.90
18876;DHT22;9570;50.854;13.778;2022-09-09T12:00:40;20.20;99.90
18876;DHT22;9570;50.854;13.778;2022-09-09T12:05:58;20.30;99.90
18876;DHT22;9570;50.854;13.778;2022-09-09T12:08:28;20.30;99.90
18876;DHT22;9570;50.854;13.778;2022-09-09T12:10:56;20.10;99.90
18876;DHT22;9570;50.854;13.778;2022-09-09T12:13:24;20.10;99.90
18876;DHT22;9570;50.854;13.778;2022-09-09T12:16:01;20.00;99.90
18876;DHT22;9570;50.854;13.778;2022-09-09T12:18:37;19.80;99.90
18876;DHT22;9570;50.854;13.778;2022-09-09T12:21:13;19.70;99.90
18876;DHT22;9570;50.854;13.778;2022-09-09T12:23:58;19.70;99.90
18876;DHT22;9570;50.854;13.778;2022-09-09T12:26:34;19.70;99.90
18876;DHT22;9570;50.854;13.778;2022-09-09T12:34:41;20.20;99.90
18876;DHT22;9570;50.854;13.778;2022-09-09T12:40:23;20.40;99.90
18876;DHT22;9570;50.854;13.778;2022-09-09T12:42:48;20.40;99.90
18876;DHT22;9570;50.854;13.778;2022-09-09T12:45:25;20.50;99.90
18876;DHT22;9570;50.854;13.778;2022-09-09T12:50:28;20.70;99.90
18876;DHT22;9570;50.854;13.778;2022-09-09T12:53:03;20.70;99.90
18876;DHT22;9570;50.854;13.778;2022-09-09T12:55:31;20.70;99.90
18876;DHT22;9570;50.854;13.778;2022-09-09T12:57:59;20.70;99.90
18876;DHT22;9570;50.854;13.778;2022-09-09T13:00:26;20.80;99.90
18876;DHT22;9570;50.854;13.778;2022-09-09T13:02:54;20.80;99.90
18876;DHT22;9570;50.854;13.778;2022-09-09T13:05:31;20.90;99.90
18876;DHT22;9570;50.854;13.778;2022-09-09T13:08:04;20.70;99.90
18876;DHT22;9570;50.854;13.778;2022-09-09T13:11:06;20.60;99.90
18876;DHT22;9570;50.854;13.778;2022-09-09T13:13:30;20.70;99.90
18876;DHT22;9570;50.854;13.778;2022-09-09T13:16:00;20.90;99.90
18876;DHT22;9570;50.854;13.778;2022-09-09T13:18:32;21.00;99.90
18876;DHT22;9570;50.854;13.778;2022-09-09T13:20:59;21.10;99.90
18876;DHT22;9570;50.854;13.778;2022-09-09T13:23:28;21.00;99.90
18876;DHT22;9570;50.854;13.778;2022-09-09T13:26:00;20.90;99.90
18876;DHT22;9570;50.854;13.778;2022-09-09T13:28:28;20.70;99.90
18876;DHT22;9570;50.854;13.778;2022-09-09T13:31:05;20.60;99.90
18876;DHT22;9570;50.854;13.778;2022-09-09T13:33:38;20.60;99.90
18876;DHT22;9570;50.854;13.778;2022-09-09T13:36:07;20.60;99.90
18876;DHT22;9570;50.854;13.778;2022-09-09T13:38:36;20.60;99.90
18876;DHT22;9570;50.854;13.778;2022-09-09T13:41:06;20.60;99.90
18876;DHT22;9570;50.854;13.778;2022-09-09T13:43:45;20.60;99.90
18876;DHT22;9570;50.854;13.778;2022-09-09T13:46:38;20.60;99.90
18876;DHT22;9570;50.854;13.778;2022-09-09T13:51:42;20.70;99.90
18876;DHT22;9570;50.854;13.778;2022-09-09T13:54:12;20.80;99.90
18876;DHT22;9570;50.854;13.778;2022-09-09T13:56:39;20.80;99.90
18876;DHT22;9570;50.854;13.778;2022-09-09T13:59:08;21.00;99.90
18876;DHT22;9570;50.854;13.778;2022-09-09T14:01:34;21.00;99.90
18876;DHT22;9570;50.854;13.778;2022-09-09T14:04:00;21.00;99.90
18876;DHT22;9570;50.854;13.778;2022-09-09T14:06:26;21.10;99.90
18876;DHT22;9570;50.854;13.778;2022-09-09T14:08:52;21.00;99.90
18876;DHT22;9570;50.854;13.778;2022-09-09T14:11:20;21.00;99.90
18876;DHT22;9570;50.854;13.778;2022-09-09T14:13:47;21.00;99.90
18876;DHT22;9570;50.854;13.778;2022-09-09T14:16:12;21.00;99.90
18876;DHT22;9570;50.854;13.778;2022-09-09T14:18:38;21.00;99.90
18876;DHT22;9570;50.854;13.778;2022-09-09T14:21:04;20.90;99.90
18876;DHT22;9570;50.854;13.778;2022-09-09T14:23:29;20.90;99.90
18876;DHT22;9570;50.854;13.778;2022-09-09T14:25:55;20.80;99.90
18876;DHT22;9570;50.854;13.778;2022-09-09T14:28:21;20.70;99.90
18876;DHT22;9570;50.854;13.778;2022-09-09T14:30:46;20.70;99.90
18876;DHT22;9570;50.854;13.778;2022-09-09T14:33:14;20.70;99.90
18876;DHT22;9570;50.854;13.778;2022-09-09T14:35:39;20.70;99.90
18876;DHT22;9570;50.854;13.778;2022-09-09T14:38:07;20.70;99.90
18876;DHT22;9570;50.854;13.778;2022-09-09T14:40:37;20.60;99.90
18876;DHT22;9570;50.854;13.778;2022-09-09T14:43:04;20.60;99.90
18876;DHT22;9570;50.854;13.778;2022-09-09T14:45:29;20.60;99.90
18876;DHT22;9570;50.854;13.778;2022-09-09T14:47:55;20.60;99.90
18876;DHT22;9570;50.854;13.778;2022-09-09T14:50:22;20.40;99.90
18876;DHT22;9570;50.854;13.778;2022-09-09T14:52:47;20.20;99.90
18876;DHT22;9570;50.854;13.778;2022-09-09T14:55:14;19.80;99.90
18876;DHT22;9570;50.854;13.778;2022-09-09T14:57:40;19.70;99.90
18876;DHT22;9570;50.854;13.778;2022-09-09T15:00:08;19.70;99.90
18876;DHT22;9570;50.854;13.778;2022-09-09T15:02:34;19.60;99.90
18876;DHT22;9570;50.854;13.778;2022-09-09T15:04:59;19.40;99.90
18876;DHT22;9570;50.854;13.778;2022-09-09T15:07:25;19.30;99.90
18876;DHT22;9570;50.854;13.778;2022-09-09T15:09:52;19.20;99.90
18876;DHT22;9570;50.854;13.778;2022-09-09T15:12:18;19.20;99.90
18876;DHT22;9570;50.854;13.778;2022-09-09T15:14:46;19.20;99.90
18876;DHT22;9570;50.854;13.778;2022-09-09T15:17:11;19.20;99.90
18876;DHT22;9570;50.854;13.778;2022-09-09T15:19:37;19.10;99.90
18876;DHT22;9570;50.854;13.778;2022-09-09T15:22:04;19.10;99.90
18876;DHT22;9570;50.854;13.778;2022-09-09T15:24:33;19.00;99.90
18876;DHT22;9570;50.854;13.778;2022-09-09T15:27:00;19.00;99.90
18876;DHT22;9570;50.854;13.778;2022-09-09T15:29:26;19.00;99.90
18876;DHT22;9570;50.854;13.778;2022-09-09T15:31:53;19.00;99.90
18876;DHT22;9570;50.854;13.778;2022-09-09T15:34:19;19.00;99.90
18876;DHT22;9570;50.854;13.778;2022-09-09T15:36:45;18.70;99.90
18876;DHT22;9570;50.854;13.778;2022-09-09T15:39:16;18.50;99.90
18876;DHT22;9570;50.854;13.778;2022-09-09T15:41:44;18.50;99.90
18876;DHT22;9570;50.854;13.778;2022-09-09T15:44:10;18.60;99.90
18876;DHT22;9570;50.854;13.778;2022-09-09T15:46:39;18.60;99.90
18876;DHT22;9570;50.854;13.778;2022-09-09T15:49:09;18.60;99.90
18876;DHT22;9570;50.854;13.778;2022-09-09T15:51:36;18.60;99.90
18876;DHT22;9570;50.854;13.778;2022-09-09T15:54:03;18.70;99.90
18876;DHT22;9570;50.854;13.778;2022-09-09T15:56:29;18.60;99.90
18876;DHT22;9570;50.854;13.778;2022-09-09T15:58:59;18.50;99.90
18876;DHT22;9570;50.854;13.778;2022-09-09T16:01:26;18.50;99.90
18876;DHT22;9570;50.854;13.778;2022-09-09T16:03:52;18.40;99.90
18876;DHT22;9570;50.854;13.778;2022-09-09T16:06:20;18.50;99.90
18876;DHT22;9570;50.854;13.778;2022-09-09T16:08:48;18.50;99.90
18876;DHT22;9570;50.854;13.778;2022-09-09T16:11:22;18.50;99.90
18876;DHT22;9570;50.854;13.778;2022-09-09T16:13:50;18.50;99.90
18876;DHT22;9570;50.854;13.778;2022-09-09T16:16:17;18.60;99.90
18876;DHT22;9570;50.854;13.778;2022-09-09T16:18:46;18.60;99.90
18876;DHT22;9570;50.854;13.778;2022-09-09T16:21:23;18.50;99.90
18876;DHT22;9570;50.854;13.778;2022-09-09T16:23:53;18.50;99.90
18876;DHT22;9570;50.854;13.778;2022-09-09T16:26:19;18.40;99.90
18876;DHT22;9570;50.854;13.778;2022-09-09T16:28:45;18.40;99.90
18876;DHT22;9570;50.854;13.778;2022-09-09T16:31:17;18.20;99.90
18876;DHT22;9570;50.854;13.778;2022-09-09T16:33:43;18.20;99.90
18876;DHT22;9570;50.854;13.778;2022-09-09T16:36:14;18.10;99.90
18876;DHT22;9570;50.854;13.778;2022-09-09T16:38:41;18.20;99.90
18876;DHT22;9570;50.854;13.778;2022-09-09T16:41:07;18.20;99.90
18876;DHT22;9570;50.854;13.778;2022-09-09T16:43:33;18.20;99.90
18876;DHT22;9570;50.854;13.778;2022-09-09T16:45:59;18.20;99.90
18876;DHT22;9570;50.854;13.778;2022-09-09T16:48:27;18.10;99.90
18876;DHT22;9570;50.854;13.778;2022-09-09T16:51:02;18.10;99.90
18876;DHT22;9570;50.854;13.778;2022-09-09T16:53:27;18.20;99.90
18876;DHT22;9570;50.854;13.778;2022-09-09T16:55:53;18.20;99.90
18876;DHT22;9570;50.854;13.778;2022-09-09T16:58:18;18.20;99.90
18876;DHT22;9570;50.854;13.778;2022-09-09T17:00:44;18.20;99.90
18876;DHT22;9570;50.854;13.778;2022-09-09T17:03:13;18.10;99.90
18876;DHT22;9570;50.854;13.778;2022-09-09T17:05:41;18.10;99.90
18876;DHT22;9570;50.854;13.778;2022-09-09T17:08:07;18.10;99.90
18876;DHT22;9570;50.854;13.778;2022-09-09T17:10:33;18.20;99.90
18876;DHT22;9570;50.854;13.778;2022-09-09T17:12:58;18.20;99.90
18876;DHT22;9570;50.854;13.778;2022-09-09T17:15:23;18.30;99.90
18876;DHT22;9570;50.854;13.778;2022-09-09T17:17:49;18.20;99.90
18876;DHT22;9570;50.854;13.778;2022-09-09T17:20:18;18.20;99.90